createdAt,value
2022-10-02T00:00:43.869Z,99.41
2022-10-02T00:03:16.073Z,99.38
2022-10-02T00:05:46.985Z,99.39
2022-10-02T00:08:24.321Z,99.39
2022-10-02T00:10:59.580Z,99.40
2022-10-02T00:13:28.922Z,99.40
2022-10-02T00:15:56.190Z,99.41
2022-10-02T00:18:31.084Z,99.43
2022-10-02T00:21:03.946Z,99.43
2022-10-02T00:23:34.912Z,99.45
2022-10-02T00:26:07.713Z,99.45
2022-10-02T00:28:51.238Z,99.45
2022-10-02T00:31:33.623Z,99.46
2022-10-02T00:34:06.535Z,99.47
2022-10-02T00:36:54.212Z,99.47
2022-10-02T00:39:24.295Z,99.47
2022-10-02T00:42:03.624Z,99.47
2022-10-02T00:44:33.704Z,99.48
2022-10-02T00:47:10.344Z,99.47
2022-10-02T00:49:44.505Z,99.49
2022-10-02T00:52:20.408Z,99.48
2022-10-02T00:54:59.393Z,99.48
2022-10-02T00:57:26.430Z,99.49
2022-10-02T01:00:01.400Z,99.51
2022-10-02T01:02:31.523Z,99.50
2022-10-02T01:05:07.628Z,99.52
2022-10-02T01:07:36.935Z,99.52
2022-10-02T01:10:04.130Z,99.51
2022-10-02T01:12:31.233Z,99.52
2022-10-02T01:14:58.288Z,99.53
2022-10-02T01:17:31.173Z,99.52
2022-10-02T01:19:59.739Z,99.56
2022-10-02T01:22:35.005Z,99.57
2022-10-02T01:25:06.565Z,99.59
2022-10-02T01:27:38.928Z,99.59
2022-10-02T01:30:15.583Z,99.59
2022-10-02T01:32:44.115Z,99.61
2022-10-02T01:35:11.211Z,99.63
2022-10-02T01:37:39.823Z,99.65
2022-10-02T01:40:10.026Z,99.65
2022-10-02T01:42:39.101Z,99.64
2022-10-02T01:45:06.969Z,99.67
2022-10-02T01:47:42.849Z,99.67
2022-10-02T01:50:36.331Z,99.68
2022-10-02T01:53:12.711Z,99.69
2022-10-02T01:55:44.648Z,99.69
2022-10-02T01:58:16.650Z,99.69
2022-10-02T02:00:43.747Z,99.70
2022-10-02T02:03:18.872Z,99.70
2022-10-02T02:05:49.769Z,99.70
2022-10-02T02:08:36.072Z,99.72
2022-10-02T02:11:07.364Z,99.71
2022-10-02T02:13:41.385Z,99.71
2022-10-02T02:16:13.207Z,99.72
2022-10-02T02:18:44.106Z,99.74
2022-10-02T02:21:14.635Z,99.74
2022-10-02T02:23:43.271Z,99.73
2022-10-02T02:26:12.513Z,99.74
2022-10-02T02:28:45.381Z,99.74
2022-10-02T02:31:14.619Z,99.75
2022-10-02T02:33:47.345Z,99.75
2022-10-02T02:36:18.093Z,99.76
2022-10-02T02:38:58.708Z,99.75
2022-10-02T02:41:27.913Z,99.83
2022-10-02T02:44:06.811Z,99.84
2022-10-02T02:46:58.272Z,99.84
2022-10-02T02:49:26.653Z,99.84
2022-10-02T02:51:56.165Z,99.85
2022-10-02T02:57:23.459Z,99.87
2022-10-02T02:59:51.717Z,99.87
2022-10-02T03:02:18.850Z,99.86
2022-10-02T03:04:45.918Z,99.88
2022-10-02T03:07:15.324Z,99.87
2022-10-02T03:09:44.448Z,99.88
2022-10-02T03:12:29.894Z,99.88
2022-10-02T03:15:06.401Z,99.89
2022-10-02T03:18:12.478Z,99.90
2022-10-02T03:20:48.303Z,99.91
2022-10-02T03:23:35.750Z,99.92
2022-10-02T03:26:05.968Z,99.91
2022-10-02T03:28:54.995Z,99.93
2022-10-02T03:31:24.440Z,99.91
2022-10-02T03:33:53.744Z,99.93
2022-10-02T03:36:21.808Z,99.95
2022-10-02T03:39:00.807Z,99.94
2022-10-02T03:41:36.217Z,99.94
2022-10-02T03:44:03.257Z,99.93
2022-10-02T03:46:30.761Z,99.93
2022-10-02T03:48:57.976Z,99.94
2022-10-02T03:51:25.039Z,99.93
2022-10-02T03:53:52.389Z,99.98
2022-10-02T03:56:37.554Z,99.99
2022-10-02T03:59:12.252Z,99.98
2022-10-02T04:01:46.872Z,99.98
2022-10-02T04:04:17.759Z,99.98
2022-10-02T04:06:48.763Z,99.98
2022-10-02T04:09:21.577Z,99.98
2022-10-02T04:11:58.482Z,100.00
2022-10-02T04:14:32.970Z,100.00
2022-10-02T04:17:03.735Z,100.00
2022-10-02T04:19:43.734Z,100.00
2022-10-02T04:22:13.898Z,100.00
2022-10-02T04:24:47.265Z,100.00
2022-10-02T04:27:36.897Z,100.00
2022-10-02T04:30:15.189Z,100.00
2022-10-02T04:32:42.241Z,100.00
2022-10-02T04:35:27.926Z,100.00
2022-10-02T04:38:04.247Z,100.00
2022-10-02T04:40:40.244Z,100.00
2022-10-02T04:43:10.357Z,100.00
2022-10-02T04:45:50.961Z,100.00
2022-10-02T04:48:33.269Z,100.00
2022-10-02T04:51:12.433Z,100.00
2022-10-02T04:53:58.035Z,100.00
2022-10-02T04:56:46.549Z,100.00
2022-10-02T04:59:13.600Z,100.00
2022-10-02T05:01:49.855Z,100.00
2022-10-02T05:04:23.243Z,100.00
2022-10-02T05:07:08.917Z,100.00
2022-10-02T05:09:42.177Z,100.00
2022-10-02T05:12:09.182Z,100.00
2022-10-02T05:14:45.331Z,100.00
2022-10-02T05:17:18.232Z,100.00
2022-10-02T05:19:58.539Z,100.00
2022-10-02T05:22:40.975Z,100.00
2022-10-02T05:25:18.157Z,100.00
2022-10-02T05:27:54.359Z,100.00
2022-10-02T05:30:21.757Z,100.00
2022-10-02T05:33:12.143Z,100.00
2022-10-02T05:35:45.415Z,100.00
2022-10-02T05:38:30.974Z,100.00
2022-10-02T05:40:58.022Z,100.00
2022-10-02T05:43:37.257Z,100.00
2022-10-02T05:46:14.800Z,100.00
2022-10-02T05:48:45.280Z,100.00
2022-10-02T05:51:15.309Z,100.00
2022-10-02T05:53:49.819Z,100.00
2022-10-02T05:56:39.939Z,100.00
2022-10-02T05:59:07.092Z,100.00
2022-10-02T06:01:37.669Z,100.00
2022-10-02T06:04:22.799Z,100.00
2022-10-02T06:06:54.127Z,100.00
2022-10-02T06:09:31.311Z,100.00
2022-10-02T06:12:01.317Z,100.00
2022-10-02T06:14:36.774Z,100.00
2022-10-02T06:17:05.439Z,100.00
2022-10-02T06:19:47.778Z,100.00
2022-10-02T06:22:18.017Z,100.00
2022-10-02T06:24:51.366Z,100.00
2022-10-02T06:27:33.862Z,100.00
2022-10-02T06:30:02.725Z,100.00
2022-10-02T06:32:44.911Z,100.00
2022-10-02T06:35:13.287Z,100.00
2022-10-02T06:37:52.184Z,100.00
2022-10-02T06:40:25.547Z,100.00
2022-10-02T06:43:01.389Z,100.00
2022-10-02T06:45:48.780Z,100.00
2022-10-02T06:48:24.792Z,100.00
2022-10-02T06:51:08.017Z,100.00
2022-10-02T06:53:38.181Z,100.00
2022-10-02T06:56:05.199Z,100.00
2022-10-02T06:58:47.433Z,100.00
2022-10-02T07:01:33.335Z,100.00
2022-10-02T07:04:00.331Z,100.00
2022-10-02T07:06:30.965Z,100.00
2022-10-02T07:09:16.903Z,100.00
2022-10-02T07:12:04.125Z,100.00
2022-10-02T07:14:37.554Z,100.00
2022-10-02T07:17:10.379Z,100.00
2022-10-02T07:19:56.409Z,100.00
2022-10-02T07:22:45.697Z,100.00
2022-10-02T07:25:19.171Z,100.00
2022-10-02T07:27:49.112Z,100.00
2022-10-02T07:30:17.653Z,100.00
2022-10-02T07:32:48.502Z,100.00
2022-10-02T07:35:27.867Z,100.00
2022-10-02T07:37:57.799Z,100.00
2022-10-02T07:40:24.826Z,100.00
2022-10-02T07:42:54.634Z,100.00
2022-10-02T07:45:27.939Z,100.00
2022-10-02T07:48:04.125Z,100.00
2022-10-02T07:50:40.107Z,100.00
2022-10-02T07:53:07.164Z,100.00
2022-10-02T07:55:35.431Z,100.00
2022-10-02T07:58:18.842Z,100.00
2022-10-02T08:00:51.336Z,100.00
2022-10-02T08:03:21.142Z,100.00
2022-10-02T08:05:51.397Z,100.00
2022-10-02T08:08:18.404Z,100.00
2022-10-02T08:10:47.751Z,100.00
2022-10-02T08:13:20.547Z,100.00
2022-10-02T08:15:55.213Z,100.00
2022-10-02T08:18:38.328Z,100.00
2022-10-02T08:21:10.290Z,100.00
2022-10-02T08:23:41.836Z,100.00
2022-10-02T08:26:08.873Z,100.00
2022-10-02T08:28:40.010Z,100.00
2022-10-02T08:31:11.490Z,100.00
2022-10-02T08:33:39.341Z,100.00
2022-10-02T08:36:28.555Z,100.00
2022-10-02T08:39:15.670Z,100.00
2022-10-02T08:41:42.687Z,100.00
2022-10-02T08:44:23.307Z,100.00
2022-10-02T08:47:00.033Z,100.00
2022-10-02T08:49:45.758Z,100.00
2022-10-02T08:52:21.761Z,100.00
2022-10-02T08:55:24.278Z,100.00
2022-10-02T08:58:03.464Z,100.00
2022-10-02T09:00:43.167Z,100.00
2022-10-02T09:03:28.993Z,100.00
2022-10-02T09:06:22.783Z,100.00
2022-10-02T09:09:15.934Z,100.00
2022-10-02T09:11:50.305Z,100.00
2022-10-02T09:14:38.161Z,100.00
2022-10-02T09:17:05.181Z,100.00
2022-10-02T09:19:41.763Z,100.00
2022-10-02T09:22:14.887Z,100.00
2022-10-02T09:24:46.614Z,100.00
2022-10-02T09:27:29.056Z,100.00
2022-10-02T09:29:56.068Z,100.00
2022-10-02T09:32:34.630Z,100.00
2022-10-02T09:35:20.617Z,100.00
2022-10-02T09:37:53.662Z,100.00
2022-10-02T09:40:53.641Z,100.00
2022-10-02T09:43:39.503Z,100.00
2022-10-02T09:46:21.993Z,100.00
2022-10-02T09:48:59.240Z,100.00
2022-10-02T09:51:40.087Z,100.00
2022-10-02T09:54:42.744Z,100.00
2022-10-02T09:57:31.845Z,100.00
2022-10-02T10:00:17.794Z,100.00
2022-10-02T10:02:50.746Z,100.00
2022-10-02T10:05:27.049Z,100.00
2022-10-02T10:08:12.644Z,100.00
2022-10-02T10:11:00.487Z,100.00
2022-10-02T10:13:27.580Z,100.00
2022-10-02T10:16:04.136Z,100.00
2022-10-02T10:19:09.940Z,100.00
2022-10-02T10:21:51.747Z,100.00
2022-10-02T10:24:30.115Z,100.00
2022-10-02T10:27:16.000Z,100.00
2022-10-02T10:30:03.849Z,100.00
2022-10-02T10:32:43.027Z,100.00
2022-10-02T10:35:28.710Z,100.00
2022-10-02T10:38:27.070Z,100.00
2022-10-02T10:41:26.774Z,100.00
2022-10-02T10:43:53.830Z,100.00
2022-10-02T10:46:31.156Z,100.00
2022-10-02T10:49:05.668Z,100.00
2022-10-02T10:51:47.458Z,100.00
2022-10-02T10:54:33.235Z,100.00
2022-10-02T10:57:12.249Z,100.00
2022-10-02T10:59:48.748Z,100.00
2022-10-02T11:02:35.973Z,100.00
2022-10-02T11:05:18.467Z,100.00
2022-10-02T11:07:45.525Z,100.00
2022-10-02T11:10:31.374Z,100.00
2022-10-02T11:13:04.389Z,100.00
2022-10-02T11:15:34.275Z,100.00
2022-10-02T11:18:12.749Z,100.00
2022-10-02T11:20:40.572Z,100.00
2022-10-02T11:23:26.252Z,100.00
2022-10-02T11:26:15.116Z,100.00
2022-10-02T11:28:45.150Z,100.00
2022-10-02T11:31:21.256Z,100.00
2022-10-02T11:34:11.484Z,100.00
2022-10-02T11:36:44.689Z,100.00
2022-10-02T11:39:11.684Z,100.00
2022-10-02T11:41:50.913Z,100.00
2022-10-02T11:44:39.315Z,100.00
2022-10-02T11:47:07.447Z,100.00
2022-10-02T11:49:40.223Z,100.00
2022-10-02T11:52:13.407Z,100.00
2022-10-02T11:54:45.740Z,100.00
2022-10-02T11:57:29.957Z,100.00
2022-10-02T12:00:05.944Z,100.00
2022-10-02T12:02:55.040Z,100.00
2022-10-02T12:05:27.899Z,100.00
2022-10-02T12:08:14.974Z,100.00
2022-10-02T12:11:08.672Z,100.00
2022-10-02T12:13:47.111Z,100.00
2022-10-02T12:16:32.701Z,100.00
2022-10-02T12:19:08.265Z,100.00
2022-10-02T12:21:59.809Z,100.00
2022-10-02T12:24:45.523Z,100.00
2022-10-02T12:27:31.467Z,100.00
2022-10-02T12:30:04.516Z,100.00
2022-10-02T12:32:51.008Z,100.00
2022-10-02T12:35:27.662Z,100.00
2022-10-02T12:38:02.997Z,100.00
2022-10-02T12:40:45.295Z,100.00
2022-10-02T12:43:27.606Z,100.00
2022-10-02T12:46:19.058Z,100.00
2022-10-02T12:48:55.545Z,100.00
2022-10-02T12:51:41.473Z,100.00
2022-10-02T12:54:08.550Z,100.00
2022-10-02T12:56:35.658Z,100.00
2022-10-02T12:59:08.848Z,100.00
2022-10-02T13:01:36.158Z,100.00
2022-10-02T13:04:03.450Z,100.00
2022-10-02T13:06:49.485Z,100.00
2022-10-02T13:09:20.244Z,100.00
2022-10-02T13:12:02.675Z,100.00
2022-10-02T13:14:48.527Z,100.00
2022-10-02T13:17:38.154Z,100.00
2022-10-02T13:20:14.487Z,100.00
2022-10-02T13:22:41.519Z,100.00
2022-10-02T13:25:22.968Z,100.00
2022-10-02T13:27:50.027Z,100.00
2022-10-02T13:30:18.687Z,100.00
2022-10-02T13:32:53.999Z,100.00
2022-10-02T13:35:33.077Z,100.00
2022-10-02T13:38:06.735Z,100.00
2022-10-02T13:40:54.041Z,100.00
2022-10-02T13:43:24.142Z,100.00
2022-10-02T13:45:51.263Z,100.00
2022-10-02T13:48:22.975Z,100.00
2022-10-02T13:50:59.232Z,100.00
2022-10-02T13:53:32.063Z,100.00
2022-10-02T13:56:10.988Z,100.00
2022-10-02T13:58:49.536Z,100.00
2022-10-02T14:01:43.101Z,100.00
2022-10-02T14:04:39.335Z,100.00
2022-10-02T14:07:06.345Z,100.00
2022-10-02T14:09:36.254Z,100.00
2022-10-02T14:12:15.285Z,100.00
2022-10-02T14:14:45.171Z,100.00
2022-10-02T14:17:12.297Z,100.00
2022-10-02T14:19:39.375Z,100.00
2022-10-02T14:22:18.824Z,100.00
2022-10-02T14:25:01.185Z,100.00
2022-10-02T14:27:47.075Z,100.00
2022-10-02T14:30:21.548Z,100.00
2022-10-02T14:33:07.288Z,100.00
2022-10-02T14:35:52.951Z,100.00
2022-10-02T14:38:28.856Z,100.00
2022-10-02T14:40:57.524Z,100.00
2022-10-02T14:43:27.683Z,100.00
2022-10-02T14:46:03.091Z,100.00
2022-10-02T14:48:42.387Z,100.00
2022-10-02T14:51:28.271Z,100.00
2022-10-02T14:53:58.988Z,100.00
2022-10-02T14:56:29.116Z,100.00
2022-10-02T14:59:28.523Z,100.00
2022-10-02T15:02:10.542Z,100.00
2022-10-02T15:04:56.196Z,100.00
2022-10-02T15:07:26.051Z,100.00
2022-10-02T15:10:00.152Z,100.00
2022-10-02T15:12:43.649Z,100.00
2022-10-02T15:15:17.745Z,100.00
2022-10-02T15:17:57.082Z,100.00
2022-10-02T15:20:42.946Z,100.00
2022-10-02T15:23:12.418Z,100.00
2022-10-02T15:25:46.464Z,100.00
2022-10-02T15:28:35.689Z,100.00
2022-10-02T15:31:18.591Z,100.00
2022-10-02T15:33:46.199Z,100.00
2022-10-02T15:36:31.250Z,100.00
2022-10-02T15:39:04.020Z,100.00
2022-10-02T15:41:40.581Z,100.00
2022-10-02T15:44:10.033Z,100.00
2022-10-02T15:46:43.392Z,100.00
2022-10-02T15:49:30.996Z,100.00
2022-10-02T15:52:05.040Z,100.00
2022-10-02T15:54:50.178Z,100.00
2022-10-02T15:57:34.140Z,100.00
2022-10-02T16:00:01.206Z,100.00
2022-10-02T16:02:53.237Z,100.00
2022-10-02T16:05:38.815Z,100.00
2022-10-02T16:08:32.450Z,100.00
2022-10-02T16:11:05.542Z,100.00
2022-10-02T16:13:50.631Z,100.00
2022-10-02T16:16:32.634Z,100.00
2022-10-02T16:19:02.891Z,100.00
2022-10-02T16:21:48.508Z,100.00
2022-10-02T16:24:37.680Z,100.00
2022-10-02T16:27:10.915Z,100.00
2022-10-02T16:29:58.222Z,100.00
2022-10-02T16:32:30.981Z,100.00
2022-10-02T16:35:16.939Z,100.00
2022-10-02T16:37:55.417Z,100.00
2022-10-02T16:40:25.847Z,100.00
2022-10-02T16:43:13.931Z,100.00
2022-10-02T16:45:59.433Z,100.00
2022-10-02T16:48:34.955Z,100.00
2022-10-02T16:51:02.480Z,100.00
2022-10-02T16:53:31.858Z,100.00
2022-10-02T16:56:06.756Z,100.00
2022-10-02T16:58:44.403Z,100.00
2022-10-02T17:01:22.423Z,100.00
2022-10-02T17:03:49.623Z,100.00
2022-10-02T17:06:28.068Z,100.00
2022-10-02T17:09:06.934Z,100.00
2022-10-02T17:11:46.169Z,100.00
2022-10-02T17:14:22.071Z,100.00
2022-10-02T17:16:49.180Z,100.00
2022-10-02T17:19:22.887Z,100.00
2022-10-02T17:22:01.989Z,100.00
2022-10-02T17:24:36.566Z,100.00
2022-10-02T17:27:11.353Z,100.00
2022-10-02T17:29:56.014Z,100.00
2022-10-02T17:32:41.629Z,100.00
2022-10-02T17:35:16.517Z,100.00
2022-10-02T17:37:52.434Z,100.00
2022-10-02T17:40:45.477Z,100.00
2022-10-02T17:43:21.466Z,100.00
2022-10-02T17:46:07.529Z,100.00
2022-10-02T17:48:44.105Z,100.00
2022-10-02T17:51:38.603Z,100.00
2022-10-02T17:54:17.112Z,100.00
2022-10-02T17:57:01.486Z,100.00
2022-10-02T17:59:42.836Z,100.00
2022-10-02T18:02:26.309Z,100.00
2022-10-02T18:04:59.597Z,100.00
2022-10-02T18:07:32.525Z,100.00
2022-10-02T18:10:02.299Z,100.00
2022-10-02T18:12:51.808Z,100.00
2022-10-02T18:15:25.100Z,100.00
2022-10-02T18:18:09.642Z,100.00
2022-10-02T18:20:57.379Z,100.00
2022-10-02T18:23:49.396Z,100.00
2022-10-02T18:26:28.532Z,100.00
2022-10-02T18:29:01.687Z,100.00
2022-10-02T18:31:55.417Z,100.00
2022-10-02T18:34:26.543Z,100.00
2022-10-02T18:37:02.893Z,100.00
2022-10-02T18:39:41.139Z,100.00
2022-10-02T18:42:33.869Z,100.00
2022-10-02T18:45:09.070Z,100.00
2022-10-02T18:47:38.928Z,100.00
2022-10-02T18:50:24.551Z,100.00
2022-10-02T18:52:51.626Z,100.00
2022-10-02T18:55:27.414Z,100.00
2022-10-02T18:58:04.418Z,100.00
2022-10-02T19:00:50.141Z,100.00
2022-10-02T19:03:36.302Z,100.00
2022-10-02T19:06:19.528Z,100.00
2022-10-02T19:09:02.418Z,100.00
2022-10-02T19:11:31.711Z,100.00
2022-10-02T19:14:02.214Z,100.00
2022-10-02T19:16:30.521Z,100.00
2022-10-02T19:19:06.677Z,100.00
2022-10-02T19:21:35.370Z,100.00
2022-10-02T19:24:15.132Z,100.00
2022-10-02T19:26:44.633Z,100.00
2022-10-02T19:29:20.864Z,100.00
2022-10-02T19:31:48.066Z,100.00
2022-10-02T19:34:24.535Z,100.00
2022-10-02T19:36:54.505Z,100.00
2022-10-02T19:39:27.631Z,100.00
2022-10-02T19:41:56.694Z,100.00
2022-10-02T19:44:28.755Z,100.00
2022-10-02T19:46:57.574Z,100.00
2022-10-02T19:49:28.315Z,100.00
2022-10-02T19:51:55.851Z,100.00
2022-10-02T19:54:23.001Z,100.00
2022-10-02T19:56:53.948Z,100.00
2022-10-02T19:59:24.045Z,100.00
2022-10-02T20:01:52.910Z,100.00
2022-10-02T20:04:25.010Z,100.00
2022-10-02T20:06:55.383Z,100.00
2022-10-02T20:09:34.745Z,100.00
2022-10-02T20:12:09.399Z,100.00
2022-10-02T20:14:36.450Z,100.00
2022-10-02T20:17:09.212Z,100.00
2022-10-02T20:19:57.696Z,100.00
2022-10-02T20:22:30.716Z,100.00
2022-10-02T20:25:03.818Z,100.00
2022-10-02T20:27:41.102Z,100.00
2022-10-02T20:30:19.191Z,100.00
2022-10-02T20:32:50.104Z,100.00
2022-10-02T20:35:29.324Z,100.00
2022-10-02T20:37:58.147Z,100.00
2022-10-02T20:40:27.364Z,100.00
2022-10-02T20:43:06.009Z,100.00
2022-10-02T20:45:39.300Z,100.00
2022-10-02T20:48:39.565Z,100.00
2022-10-02T20:51:24.811Z,100.00
2022-10-02T20:53:52.456Z,100.00
2022-10-02T20:56:34.859Z,100.00
2022-10-02T20:59:04.758Z,100.00
2022-10-02T21:01:50.364Z,100.00
2022-10-02T21:04:36.024Z,100.00
2022-10-02T21:07:07.300Z,100.00
2022-10-02T21:09:40.806Z,100.00
2022-10-02T21:12:26.894Z,100.00
2022-10-02T21:15:12.864Z,100.00
2022-10-02T21:17:58.611Z,100.00
2022-10-02T21:20:49.861Z,100.00
2022-10-02T21:23:29.156Z,100.00
2022-10-02T21:26:15.017Z,100.00
2022-10-02T21:28:42.072Z,100.00
2022-10-02T21:31:10.621Z,100.00
2022-10-02T21:33:40.358Z,100.00
2022-10-02T21:36:09.122Z,100.00
2022-10-02T21:38:39.008Z,100.00
2022-10-02T21:41:28.299Z,100.00
2022-10-02T21:44:16.374Z,100.00
2022-10-02T21:47:02.332Z,100.00
2022-10-02T21:49:47.912Z,100.00
2022-10-02T21:52:20.879Z,100.00
2022-10-02T21:54:56.912Z,100.00
2022-10-02T21:57:37.246Z,100.00
2022-10-02T22:00:09.199Z,100.00
2022-10-02T22:02:55.480Z,100.00
2022-10-02T22:05:31.650Z,100.00
2022-10-02T22:08:15.603Z,100.00
2022-10-02T22:10:49.272Z,100.00
2022-10-02T22:13:25.372Z,100.00
2022-10-02T22:16:02.049Z,100.00
2022-10-02T22:18:29.181Z,100.00
2022-10-02T22:21:08.893Z,100.00
2022-10-02T22:23:54.237Z,100.00
2022-10-02T22:26:47.474Z,100.00
2022-10-02T22:29:18.426Z,100.00
2022-10-02T22:32:22.535Z,100.00
2022-10-02T22:34:54.510Z,100.00
2022-10-02T22:37:40.399Z,100.00
2022-10-02T22:40:15.389Z,100.00
2022-10-02T22:42:46.937Z,100.00
2022-10-02T22:45:16.796Z,100.00
2022-10-02T22:47:52.115Z,100.00
2022-10-02T22:50:23.771Z,100.00
2022-10-02T22:52:54.052Z,100.00
2022-10-02T22:55:29.834Z,100.00
2022-10-02T22:58:06.442Z,100.00
2022-10-02T23:00:39.562Z,100.00
2022-10-02T23:03:22.758Z,100.00
2022-10-02T23:05:56.816Z,100.00
2022-10-02T23:08:53.037Z,100.00
2022-10-02T23:11:23.459Z,100.00
2022-10-02T23:13:54.380Z,100.00
2022-10-02T23:16:39.940Z,100.00
2022-10-02T23:19:18.544Z,100.00
2022-10-02T23:21:53.442Z,100.00
2022-10-02T23:24:28.527Z,100.00
2022-10-02T23:27:14.225Z,100.00
2022-10-02T23:29:45.740Z,100.00
2022-10-02T23:32:17.428Z,100.00
2022-10-02T23:34:51.215Z,100.00
2022-10-02T23:37:24.279Z,100.00
2022-10-02T23:39:58.574Z,100.00
2022-10-02T23:42:42.997Z,100.00
2022-10-02T23:45:30.297Z,100.00
2022-10-02T23:48:03.064Z,100.00
2022-10-02T23:50:52.795Z,100.00
2022-10-02T23:53:41.037Z,100.00
2022-10-02T23:56:17.372Z,100.00
2022-10-02T23:58:58.561Z,100.00
